KPUW/PUW METAR and TAF weather

Enter ICAO airport designator
Station Type Date Time Source
KPUW METAR 2021/05/12 00:53 UTC NOAA

KPUW 120053Z AUTO 24005KT 10SM CLR 19/M03 A3012 RMK AO2 SLP200 T01891028


Station Type Date Time Source
KPUW Decoded METAR 2021/05/12 00:53 UTC NOAA

PULLMAN/MOSCOW RGNL AIRPORT , WA, United States (KPUW) 46-45N 117-07W 773M
May 11, 2021 - 08:53 PM EDT / 2021.05.12 0053 UTC
Wind: from the WSW (240 degrees) at 6 MPH (5 KT):0
Visibility: 10 mile(s):0
Sky conditions: clear
Temperature: 66.0 F (18.9 C)
Dew Point: 27.0 F (-2.8 C)
Relative Humidity: 22%
Pressure (altimeter): 30.12 in. Hg (1019 hPa)
ob: KPUW 120053Z AUTO 24005KT 10SM CLR 19/M03 A3012 RMK AO2 SLP200 T01891028
cycle: 1

Station Type Date Time Source
KPUW TAF 2021/05/11 18:24 UTC NOAA

TAF KPUW 111722Z 1118/1218 11006KT P6SM FEW070 SCT110
FM112000 25006KT P6SM SCT070 SCT250
FM120300 VRB03KT P6SM FEW250
FM121100 10006KT P6SM SCT200 BKN250

Example: see airport list